createdAt,value
2023-01-10T02:53:01.115Z,50.874680
2023-01-10T02:54:01.058Z,50.875431
2023-01-10T02:55:01.096Z,50.875187
2023-01-10T02:56:01.091Z,50.875538
2023-01-10T02:57:01.100Z,50.875942
2023-01-10T02:58:01.053Z,50.875942
2023-01-10T02:59:01.064Z,50.875927
2023-01-10T03:00:00.998Z,50.876152
2023-01-10T03:01:01.054Z,50.876209
2023-01-10T03:02:01.114Z,50.876221
2023-01-10T03:03:01.003Z,50.876202
2023-01-10T03:04:01.018Z,50.876957
2023-01-10T03:05:00.995Z,50.876904
2023-01-10T03:06:00.992Z,50.876904
2023-01-10T03:07:00.982Z,50.876904
2023-01-10T03:08:00.956Z,50.876904
2023-01-10T03:09:00.927Z,50.876904
2023-01-10T03:10:00.927Z,50.876904
2023-01-10T03:11:00.947Z,50.876904
2023-01-10T03:12:00.936Z,50.876904
2023-01-10T03:13:00.883Z,50.876904
2023-01-10T03:14:00.895Z,50.876904
2023-01-10T03:15:00.882Z,50.875675
2023-01-10T03:16:01.020Z,50.876835
2023-01-10T03:17:00.888Z,50.876808
2023-01-10T03:18:00.853Z,50.876808
2023-01-10T03:19:00.881Z,50.876808
2023-01-10T03:20:01.035Z,50.876938
2023-01-10T03:21:00.813Z,50.877544
2023-01-10T03:22:00.837Z,50.876747
2023-01-10T03:23:00.843Z,50.876713
2023-01-10T03:24:00.843Z,50.876431
2023-01-10T03:25:00.810Z,50.876640
2023-01-10T03:26:00.747Z,50.876171
2023-01-10T03:27:00.771Z,50.876114
2023-01-10T03:28:00.786Z,50.876019
2023-01-10T03:29:00.757Z,50.875946
2023-01-10T03:30:00.804Z,50.875828
2023-01-10T03:31:00.799Z,50.875828
2023-01-10T03:32:00.737Z,50.875580
2023-01-10T03:33:00.710Z,50.875278
2023-01-10T03:34:00.714Z,50.874714
2023-01-10T03:35:00.657Z,50.874741
2023-01-10T03:36:00.688Z,50.874760
2023-01-10T03:37:00.685Z,50.874760
2023-01-10T03:38:00.654Z,50.875572
2023-01-10T03:39:00.644Z,50.875572
2023-01-10T03:40:00.664Z,50.875385
2023-01-10T03:41:00.711Z,50.875526
2023-01-10T03:42:00.595Z,50.875496
2023-01-10T03:43:00.622Z,50.874611
2023-01-10T03:44:00.609Z,50.875359
2023-01-10T03:45:00.593Z,50.877674
2023-01-10T03:46:00.594Z,50.887463
2023-01-10T03:47:00.583Z,50.903130
2023-01-10T03:48:00.604Z,50.924362
2023-01-10T03:49:00.565Z,50.924362
2023-01-10T03:50:00.551Z,50.924362
2023-01-10T03:51:00.536Z,50.924362
2023-01-10T03:52:00.547Z,50.924362
2023-01-10T03:53:00.520Z,50.924362
2023-01-10T03:54:00.542Z,50.924362
2023-01-10T03:55:00.499Z,50.924362
2023-01-10T03:56:00.494Z,50.924362
2023-01-10T03:57:02.656Z,50.924362
2023-01-10T03:58:01.416Z,50.924362
2023-01-10T03:59:00.456Z,50.924362
2023-01-10T04:00:00.430Z,50.924362
2023-01-10T04:01:00.509Z,50.924362
2023-01-10T04:02:00.571Z,50.924362
2023-01-10T04:03:00.463Z,50.924362
2023-01-10T04:04:00.429Z,50.924362
2023-01-10T04:05:00.405Z,50.924362
2023-01-10T04:06:00.375Z,50.924362
2023-01-10T04:07:00.424Z,50.924362
2023-01-10T04:08:00.359Z,50.924362
2023-01-10T04:09:00.372Z,50.924362
2023-01-10T04:10:00.348Z,50.924362
2023-01-10T04:11:00.309Z,50.924362
2023-01-10T04:12:00.335Z,50.924362
2023-01-10T04:13:00.350Z,50.924362
2023-01-10T04:14:00.311Z,50.924362
2023-01-10T04:15:00.277Z,50.924362
2023-01-10T04:16:00.319Z,50.924362
2023-01-10T04:17:00.300Z,50.924362
2023-01-10T04:18:00.243Z,50.924362
2023-01-10T04:19:00.243Z,50.924362
2023-01-10T04:20:00.247Z,50.924362
2023-01-10T04:21:00.221Z,50.924362
2023-01-10T04:22:00.224Z,50.924362
2023-01-10T04:23:00.226Z,50.924362
2023-01-10T04:24:00.167Z,50.924362
2023-01-10T04:25:00.218Z,50.924362
2023-01-10T04:26:00.178Z,50.924362
2023-01-10T04:27:00.205Z,50.924362
2023-01-10T04:28:00.183Z,50.924362
2023-01-10T04:29:00.209Z,50.924362
2023-01-10T04:30:00.154Z,50.924362
2023-01-10T04:31:00.115Z,50.924362
2023-01-10T04:32:00.119Z,50.924362
2023-01-10T04:33:00.111Z,50.924362
2023-01-10T04:34:00.129Z,50.924362
2023-01-10T04:35:00.081Z,50.924362
2023-01-10T04:36:00.133Z,50.924362
2023-01-10T04:37:00.113Z,50.924362
2023-01-10T04:38:00.059Z,50.924362
2023-01-10T04:39:00.043Z,50.924362
2023-01-10T04:40:00.041Z,50.924362
2023-01-10T04:41:00.006Z,50.924362
2023-01-10T04:42:00.014Z,50.924362
2023-01-10T04:42:59.992Z,50.924362
2023-01-10T04:44:00.005Z,50.924362
2023-01-10T04:44:59.989Z,50.924362
2023-01-10T04:46:00.003Z,50.924362
2023-01-10T04:46:59.981Z,50.924362
2023-01-10T04:48:00.002Z,50.924362
2023-01-10T04:48:59.969Z,50.924362
2023-01-10T04:49:59.957Z,50.924362
2023-01-10T04:50:59.930Z,50.924362
2023-01-10T04:51:59.930Z,50.924362
2023-01-10T04:52:59.923Z,50.924362
2023-01-10T04:53:59.881Z,50.924362
2023-01-10T04:54:59.854Z,50.924362
2023-01-10T04:55:59.871Z,50.924362
2023-01-10T04:56:59.875Z,50.924362
2023-01-10T04:57:59.883Z,50.924362
2023-01-10T04:58:59.902Z,50.924362
2023-01-10T04:59:59.824Z,50.924362
2023-01-10T05:00:59.864Z,50.924362
2023-01-10T05:01:59.880Z,50.924362
2023-01-10T05:02:59.905Z,50.924362
2023-01-10T05:04:00.790Z,50.924362
2023-01-10T05:04:59.786Z,50.924362
2023-01-10T05:05:59.754Z,50.924362
2023-01-10T05:06:59.764Z,50.924362
2023-01-10T05:07:59.800Z,50.924362
2023-01-10T05:08:59.728Z,50.924362
2023-01-10T05:09:59.739Z,50.924362
2023-01-10T05:10:59.730Z,50.924362
2023-01-10T05:11:59.708Z,50.924362
2023-01-10T05:12:59.719Z,50.924362
2023-01-10T05:13:59.750Z,50.924362
2023-01-10T05:14:59.685Z,50.924362
2023-01-10T05:15:59.650Z,50.924362
2023-01-10T05:16:59.691Z,50.924362
2023-01-10T05:17:59.655Z,50.924362
2023-01-10T05:18:59.608Z,50.924362
2023-01-10T05:19:59.633Z,50.924362
2023-01-10T05:20:59.614Z,50.924362
2023-01-10T05:21:59.626Z,50.924362
2023-01-10T05:22:59.629Z,50.924362
2023-01-10T05:23:59.601Z,50.924362
2023-01-10T05:24:59.571Z,50.924362
2023-01-10T05:25:59.527Z,50.924362
2023-01-10T05:26:59.520Z,50.924362
2023-01-10T05:27:59.550Z,50.924362
2023-01-10T05:28:59.630Z,50.924362
2023-01-10T05:29:59.517Z,50.924362
2023-01-10T05:30:59.503Z,50.924362
2023-01-10T05:31:59.523Z,50.924362
2023-01-10T05:32:59.518Z,50.924362
2023-01-10T05:33:59.487Z,50.924362
2023-01-10T05:34:59.462Z,50.924362
2023-01-10T05:35:59.466Z,50.924362
2023-01-10T05:36:59.448Z,50.924362
2023-01-10T05:37:59.507Z,50.924362
2023-01-10T05:38:59.443Z,50.924362
2023-01-10T05:39:59.392Z,50.924362
2023-01-10T05:40:59.386Z,50.924362
2023-01-10T05:41:59.437Z,50.924362
2023-01-10T05:42:59.421Z,50.924362
2023-01-10T05:43:59.386Z,50.924362
2023-01-10T05:44:59.361Z,50.924362
2023-01-10T05:45:59.537Z,50.924362
2023-01-10T05:46:59.433Z,50.924362
2023-01-10T05:47:59.322Z,50.924362
2023-01-10T05:48:59.367Z,50.924362
2023-01-10T05:49:59.363Z,50.924362
2023-01-10T05:50:59.305Z,50.924362
2023-01-10T05:51:59.393Z,50.924362
2023-01-10T05:52:59.350Z,50.924362
2023-01-10T05:53:59.370Z,50.924362
2023-01-10T05:54:59.298Z,50.924362
2023-01-10T05:55:59.357Z,50.924362
2023-01-10T05:56:59.326Z,50.924362
2023-01-10T05:57:59.289Z,50.924362
2023-01-10T05:59:07.778Z,50.924362
2023-01-10T06:00:01.580Z,50.924362
2023-01-10T06:00:59.315Z,50.924362
2023-01-10T06:01:59.241Z,50.924362
2023-01-10T06:02:59.259Z,50.924362
2023-01-10T06:03:59.260Z,50.924362
2023-01-10T06:04:59.237Z,50.924362
2023-01-10T06:05:59.218Z,50.924362
2023-01-10T06:06:59.284Z,50.924362
2023-01-10T06:07:59.150Z,50.924362
2023-01-10T06:08:59.181Z,50.924362
2023-01-10T06:09:59.135Z,50.924362
2023-01-10T06:10:59.180Z,50.924362
2023-01-10T06:11:59.071Z,50.924362
2023-01-10T06:12:59.064Z,50.924362
2023-01-10T06:13:59.030Z,50.924362
2023-01-10T06:14:59.047Z,50.924362
2023-01-10T06:15:59.038Z,50.924362
2023-01-10T06:16:59.023Z,50.924362
2023-01-10T06:17:59.018Z,50.924362
2023-01-10T06:18:58.999Z,50.924362
2023-01-10T06:19:59.992Z,50.924362
2023-01-10T06:20:58.979Z,50.924362
2023-01-10T06:21:59.010Z,50.924362
2023-01-10T06:22:58.987Z,50.924362
2023-01-10T06:23:58.998Z,50.924362
2023-01-10T06:25:00.449Z,50.924362
2023-01-10T06:25:58.920Z,50.924362
2023-01-10T06:26:58.926Z,50.924362
2023-01-10T06:27:58.892Z,50.924362
2023-01-10T06:28:58.970Z,50.924362
2023-01-10T06:29:59.014Z,50.924362
2023-01-10T06:30:58.922Z,50.924362
2023-01-10T06:31:58.849Z,50.924362
2023-01-10T06:32:58.852Z,50.924362
2023-01-10T06:33:58.884Z,50.924362
2023-01-10T06:34:58.806Z,50.924362
2023-01-10T06:35:58.836Z,50.924362
2023-01-10T06:36:58.946Z,50.924362
2023-01-10T06:37:58.804Z,50.924362
2023-01-10T06:38:58.851Z,50.924362
2023-01-10T06:39:58.796Z,50.924362
2023-01-10T06:40:58.762Z,50.924362
2023-01-10T06:41:58.784Z,50.924362
2023-01-10T06:42:58.742Z,50.924362
2023-01-10T06:43:58.763Z,50.924362
2023-01-10T06:44:58.732Z,50.924362
2023-01-10T06:45:59.805Z,50.924362
2023-01-10T06:46:58.746Z,50.924362
2023-01-10T06:47:58.695Z,50.924362
2023-01-10T06:48:58.705Z,50.924362
2023-01-10T06:49:58.685Z,50.924362
2023-01-10T06:50:58.671Z,50.924362
2023-01-10T06:51:58.671Z,50.924362
2023-01-10T06:52:58.714Z,50.924362
2023-01-10T06:53:58.697Z,50.924362
2023-01-10T06:54:58.630Z,50.924362
2023-01-10T06:55:58.660Z,50.924362
2023-01-10T06:56:58.565Z,50.924362
2023-01-10T06:57:58.602Z,50.924362
2023-01-10T06:58:59.610Z,50.924362
2023-01-10T06:59:58.569Z,50.924362
2023-01-10T07:00:58.643Z,50.924362
2023-01-10T07:01:58.688Z,50.924362
2023-01-10T07:02:58.521Z,50.924362
2023-01-10T07:03:58.610Z,50.924362
2023-01-10T07:04:58.539Z,50.924362
2023-01-10T07:05:58.514Z,50.924362
2023-01-10T07:06:58.506Z,50.924362
2023-01-10T07:07:58.504Z,50.924362
2023-01-10T07:08:58.496Z,50.924362
2023-01-10T07:09:58.491Z,50.924362
2023-01-10T07:10:58.473Z,50.924362
2023-01-10T07:11:58.430Z,50.924362
2023-01-10T07:12:58.455Z,50.924362
2023-01-10T07:13:58.423Z,50.924362
2023-01-10T07:14:58.504Z,50.924362
2023-01-10T07:15:58.492Z,50.924362
2023-01-10T07:16:58.391Z,50.924362
2023-01-10T07:17:58.420Z,50.924362
2023-01-10T07:18:58.415Z,50.924362
2023-01-10T07:19:58.363Z,50.924362
2023-01-10T07:20:58.406Z,50.924362
2023-01-10T07:21:58.451Z,50.924362
2023-01-10T07:22:58.393Z,50.924362
2023-01-10T07:23:58.336Z,50.924362
2023-01-10T07:24:58.306Z,50.924362
2023-01-10T07:25:58.386Z,50.924362
2023-01-10T07:26:58.280Z,50.924362
2023-01-10T07:27:58.340Z,50.924362
2023-01-10T07:28:58.326Z,50.924362
2023-01-10T07:29:58.346Z,50.924362
2023-01-10T07:30:58.358Z,50.924362
2023-01-10T07:31:58.282Z,50.924362
2023-01-10T07:32:58.276Z,50.924362
2023-01-10T07:33:58.272Z,50.924362
2023-01-10T07:34:58.255Z,50.924362
2023-01-10T07:35:58.234Z,50.924362
2023-01-10T07:36:58.243Z,50.924362
2023-01-10T07:37:58.207Z,50.924362
2023-01-10T07:38:58.193Z,50.924362
2023-01-10T07:39:58.221Z,50.924362
2023-01-10T07:40:58.211Z,50.924362
2023-01-10T07:41:58.205Z,50.924362
2023-01-10T07:42:58.127Z,50.924362
2023-01-10T07:43:58.092Z,50.924362
2023-01-10T07:44:58.108Z,50.924362
2023-01-10T07:45:58.152Z,50.924362
2023-01-10T07:46:58.121Z,50.924362
2023-01-10T07:47:58.096Z,50.924362
2023-01-10T07:48:58.068Z,50.924362
2023-01-10T07:49:58.084Z,50.924362
2023-01-10T07:50:58.035Z,50.924362
2023-01-10T07:51:58.036Z,50.924362
2023-01-10T07:52:59.019Z,50.924362
2023-01-10T07:53:58.027Z,50.924362
2023-01-10T07:54:57.983Z,50.924362
2023-01-10T07:55:57.983Z,50.924362
2023-01-10T07:56:57.987Z,50.924362
2023-01-10T07:57:57.953Z,50.924362
2023-01-10T07:58:57.956Z,50.924362
2023-01-10T07:59:57.961Z,50.924362
2023-01-10T08:00:57.944Z,50.924362
2023-01-10T08:01:57.947Z,50.924362
2023-01-10T08:02:58.016Z,50.924362
2023-01-10T08:03:57.892Z,50.924362
2023-01-10T08:04:57.937Z,50.924362
2023-01-10T08:05:57.864Z,50.924362
2023-01-10T08:06:57.866Z,50.924362
2023-01-10T08:07:57.838Z,50.924362
2023-01-10T08:08:57.864Z,50.924362
2023-01-10T08:09:57.851Z,50.924362
2023-01-10T08:10:57.820Z,50.924362
2023-01-10T08:11:57.814Z,50.924362
2023-01-10T08:12:59.603Z,50.924362
2023-01-10T08:13:59.799Z,50.924362
2023-01-10T08:14:57.830Z,50.924362
2023-01-10T08:15:57.921Z,50.924362
2023-01-10T08:16:57.766Z,50.924362
2023-01-10T08:17:57.750Z,50.924362
2023-01-10T08:18:57.740Z,50.924362
2023-01-10T08:19:57.738Z,50.924362
2023-01-10T08:20:57.775Z,50.924362
2023-01-10T08:21:57.713Z,50.924362
2023-01-10T08:22:57.696Z,50.924362
2023-01-10T08:23:57.687Z,50.924362
2023-01-10T08:24:57.696Z,50.924362
2023-01-10T08:25:57.710Z,50.924362
2023-01-10T08:26:57.669Z,50.924362
2023-01-10T08:27:57.684Z,50.924362
2023-01-10T08:28:57.689Z,50.924362
2023-01-10T08:29:57.641Z,50.924362
2023-01-10T08:30:57.670Z,50.924362
2023-01-10T08:31:57.628Z,50.924362
2023-01-10T08:32:57.609Z,50.924362
2023-01-10T08:33:57.605Z,50.924362
2023-01-10T08:34:57.575Z,50.924362
2023-01-10T08:35:57.580Z,50.924362
2023-01-10T08:36:57.592Z,50.924362
2023-01-10T08:37:57.567Z,50.924362
2023-01-10T08:38:57.551Z,50.924362
2023-01-10T08:39:57.557Z,50.924362
2023-01-10T08:40:57.535Z,50.924362
2023-01-10T08:41:57.521Z,50.924362
2023-01-10T08:42:57.493Z,50.924362
2023-01-10T08:43:57.488Z,50.924362
2023-01-10T08:44:59.145Z,50.924362
2023-01-10T08:45:57.490Z,50.924362
2023-01-10T08:46:57.473Z,50.924362
2023-01-10T08:47:57.457Z,50.924362
2023-01-10T08:48:57.456Z,50.924362
2023-01-10T08:49:57.387Z,50.924362
2023-01-10T08:50:58.467Z,50.924362
2023-01-10T08:51:57.389Z,50.924362
2023-01-10T08:52:57.392Z,50.924362
2023-01-10T08:53:57.393Z,50.924362
2023-01-10T08:55:26.830Z,50.924362
2023-01-10T17:10:50.713Z,50.875736
2023-01-10T17:11:50.728Z,50.875534
2023-01-10T17:12:50.734Z,50.875824
2023-01-10T17:13:50.710Z,50.875626
2023-01-10T17:14:51.253Z,50.875065
2023-01-10T17:15:51.498Z,50.875450
2023-01-10T17:16:50.718Z,50.875332
2023-01-10T17:17:50.661Z,50.875229
2023-01-10T17:18:50.666Z,50.875263
2023-01-10T17:19:50.657Z,50.875412
2023-01-10T17:20:50.656Z,50.875332
2023-01-10T17:21:50.619Z,50.875427
2023-01-10T17:22:50.640Z,50.875481
2023-01-10T17:23:50.628Z,50.875340
2023-01-10T17:24:50.613Z,50.875465
2023-01-10T17:25:50.585Z,50.875416
2023-01-10T17:26:50.623Z,50.875362
2023-01-10T17:27:50.621Z,50.875504
2023-01-10T17:28:50.565Z,50.875454
2023-01-10T17:29:50.590Z,50.875736
2023-01-10T17:30:50.539Z,50.875397
2023-01-10T17:31:50.627Z,50.875248
2023-01-10T17:32:50.526Z,50.875187
2023-01-10T17:33:50.536Z,50.875225
2023-01-10T17:34:50.495Z,50.875290
2023-01-10T17:35:50.552Z,50.875416
2023-01-10T17:36:50.477Z,50.875385
2023-01-10T17:37:50.440Z,50.875408
2023-01-10T17:38:50.471Z,50.875412
2023-01-10T17:39:50.458Z,50.875458
2023-01-10T17:40:50.440Z,50.875389
2023-01-10T17:41:50.439Z,50.875381
2023-01-10T17:42:50.432Z,50.875393
2023-01-10T17:43:50.427Z,50.875397
2023-01-10T17:44:50.394Z,50.875393
2023-01-10T17:45:50.509Z,50.875381
2023-01-10T17:46:50.400Z,50.875275
2023-01-10T17:47:50.427Z,50.875412
2023-01-10T17:48:50.372Z,50.875397
2023-01-10T17:49:50.384Z,50.875011
2023-01-10T17:50:50.321Z,50.875271
2023-01-10T17:51:50.316Z,50.875381
2023-01-10T17:52:50.326Z,50.875767
2023-01-10T17:53:50.302Z,50.875671
2023-01-10T17:54:50.314Z,50.875671
2023-01-10T17:55:50.295Z,50.875599
2023-01-10T17:56:50.280Z,50.875523
2023-01-10T17:57:50.270Z,50.875492
2023-01-10T17:58:50.278Z,50.875340
2023-01-10T17:59:50.296Z,50.875595
2023-01-10T18:00:52.962Z,50.875530
2023-01-10T18:01:50.361Z,50.875530
2023-01-10T18:02:50.877Z,50.875530
2023-01-10T18:03:50.229Z,50.875530
2023-01-10T18:04:50.247Z,50.875530
2023-01-10T18:05:50.202Z,50.875530
2023-01-10T18:06:50.206Z,50.875530
2023-01-10T18:07:50.209Z,50.875530
2023-01-10T18:08:50.190Z,50.875530
2023-01-10T18:09:50.229Z,50.875530
2023-01-10T18:10:50.195Z,50.875530
2023-01-10T18:11:50.167Z,50.875530
2023-01-10T18:12:50.127Z,50.875530
2023-01-10T18:13:50.104Z,50.875530
2023-01-10T18:14:50.153Z,50.875530
2023-01-10T18:15:50.152Z,50.875530
2023-01-10T18:16:50.218Z,50.875530
2023-01-10T18:17:50.087Z,50.875530
2023-01-10T18:18:50.072Z,50.875530
2023-01-10T18:19:50.197Z,50.875530
2023-01-10T18:20:50.042Z,50.875530
2023-01-10T18:21:50.047Z,50.875530
2023-01-10T18:22:50.052Z,50.875530
2023-01-10T18:23:50.075Z,50.875530
2023-01-10T18:24:50.038Z,50.875355
2023-01-10T18:25:50.002Z,50.875340
2023-01-10T18:26:50.032Z,50.875336
2023-01-10T18:27:49.981Z,50.875347
2023-01-10T18:28:49.991Z,50.875320
2023-01-10T18:29:50.065Z,50.875301
2023-01-10T18:30:50.043Z,50.875359
2023-01-10T18:31:49.933Z,50.875320
2023-01-10T18:32:49.952Z,50.875156
2023-01-10T18:33:49.947Z,50.875328
2023-01-10T18:34:49.943Z,50.875263
2023-01-10T18:35:49.883Z,50.875214
2023-01-10T18:36:50.831Z,50.875340
2023-01-10T18:37:49.899Z,50.875332
2023-01-10T18:38:49.873Z,50.875397
2023-01-10T18:39:50.740Z,50.875298
2023-01-10T18:40:49.872Z,50.875328
2023-01-10T18:41:50.686Z,50.875366
2023-01-10T18:42:49.836Z,50.875420
2023-01-10T18:43:51.334Z,50.875359
2023-01-10T18:44:49.823Z,50.875298
2023-01-10T18:45:50.833Z,50.875336
2023-01-10T18:46:49.796Z,50.875381
2023-01-10T18:47:49.858Z,50.875427
2023-01-10T18:48:49.819Z,50.875340
2023-01-10T18:49:49.783Z,50.875343
2023-01-10T18:50:49.770Z,50.875278
2023-01-10T18:51:51.277Z,50.875309
2023-01-10T18:52:49.793Z,50.875404
2023-01-10T18:53:49.744Z,50.875385
2023-01-10T18:54:49.750Z,50.875465
2023-01-10T18:55:49.785Z,50.875465
2023-01-10T18:56:49.714Z,50.875465
2023-01-10T18:57:50.291Z,50.875465
2023-01-10T18:58:50.621Z,50.875465
2023-01-10T18:59:49.678Z,50.875465
2023-01-10T19:00:49.656Z,50.875465
2023-01-10T19:01:49.707Z,50.875465
2023-01-10T19:02:49.726Z,50.875595
2023-01-10T19:03:49.684Z,50.875595
2023-01-10T19:04:50.290Z,50.875595
2023-01-10T19:05:49.697Z,50.875595
2023-01-10T19:06:50.460Z,50.875595
2023-01-10T19:07:49.957Z,50.875595
2023-01-10T19:08:49.589Z,50.875172
2023-01-10T19:09:50.945Z,50.875328
2023-01-10T19:11:11.819Z,50.875393
2023-01-10T19:11:51.574Z,50.875374
2023-01-10T19:12:49.550Z,50.875412
2023-01-10T19:13:50.192Z,50.875389
2023-01-10T19:14:49.546Z,50.875328
2023-01-10T19:15:50.178Z,50.875202
2023-01-10T19:16:49.559Z,50.875008
2023-01-10T19:17:50.758Z,50.874996
2023-01-10T19:18:49.748Z,50.875233
2023-01-10T19:19:49.491Z,50.875172
2023-01-10T19:20:50.253Z,50.875031
2023-01-10T19:21:49.488Z,50.875271
2023-01-10T19:22:49.691Z,50.875389
2023-01-10T19:23:49.515Z,50.875439
2023-01-10T19:24:50.556Z,50.875465
2023-01-10T19:25:49.476Z,50.875362
2023-01-10T19:26:50.541Z,50.874725
2023-01-10T19:27:49.442Z,50.874668
2023-01-10T19:28:49.430Z,50.874088
2023-01-10T19:29:49.793Z,50.874187
2023-01-10T19:31:02.761Z,50.874409
2023-01-10T19:31:51.366Z,50.874680
2023-01-10T19:32:49.352Z,50.874882
2023-01-10T19:33:49.420Z,50.874969
2023-01-10T19:34:49.348Z,50.874969
2023-01-10T19:35:49.332Z,50.874969
2023-01-10T19:36:49.306Z,50.874969
2023-01-10T19:37:50.769Z,50.874969
2023-01-10T19:38:49.296Z,50.874969
2023-01-10T19:39:49.345Z,50.874969
2023-01-10T19:40:49.328Z,50.948212
2023-01-10T19:41:49.282Z,50.194950
2023-01-10T19:42:49.265Z,50.192497
2023-01-10T19:43:49.259Z,50.192497
2023-01-10T19:44:49.828Z,50.192497
2023-01-10T19:45:49.209Z,50.192497
2023-01-10T19:46:49.232Z,50.192497
2023-01-10T19:47:49.225Z,50.192497
2023-01-10T19:48:49.195Z,50.192497
2023-01-10T19:49:49.170Z,50.192497
2023-01-10T19:50:49.227Z,50.192497
2023-01-10T19:51:49.244Z,50.192497
2023-01-10T19:52:49.164Z,50.192497
2023-01-10T19:53:49.319Z,50.192497
2023-01-10T19:54:49.128Z,50.192497
2023-01-10T19:55:49.130Z,50.192497
2023-01-10T19:56:49.150Z,50.192497
2023-01-10T19:57:49.277Z,50.192497
2023-01-10T19:58:49.113Z,50.192497
2023-01-10T19:59:49.106Z,50.192497
2023-01-10T20:00:49.076Z,50.192497
2023-01-10T20:01:49.121Z,50.192497
2023-01-10T20:02:49.082Z,50.192497
2023-01-10T20:03:49.084Z,50.192497
2023-01-10T20:04:49.027Z,50.192497
2023-01-10T20:05:49.043Z,50.192497
2023-01-10T20:06:49.020Z,50.192497
2023-01-10T20:07:49.017Z,50.192497
2023-01-10T20:08:49.004Z,50.192497
2023-01-10T20:09:48.988Z,50.192497
2023-01-10T20:10:49.809Z,50.192497
2023-01-10T20:11:48.975Z,50.192497
2023-01-10T20:12:48.969Z,50.192497
2023-01-10T20:13:48.970Z,50.192497
2023-01-10T20:14:48.933Z,50.192497
2023-01-10T20:15:48.970Z,50.875423
2023-01-10T20:16:48.928Z,50.875702
2023-01-10T20:17:49.930Z,50.875549
2023-01-10T20:18:48.901Z,50.875504
2023-01-10T20:19:48.873Z,50.875450
2023-01-10T20:20:48.885Z,50.875496
2023-01-10T20:21:48.876Z,50.875458
2023-01-10T20:22:48.838Z,50.875313
2023-01-10T20:23:48.866Z,50.875031
2023-01-10T20:24:48.847Z,50.875282
2023-01-10T20:25:48.870Z,50.875534
2023-01-10T20:26:48.832Z,50.875267
2023-01-10T20:27:48.790Z,50.875389
2023-01-10T20:28:48.802Z,50.875481
2023-01-10T20:29:48.776Z,50.875587
2023-01-10T20:30:49.816Z,50.875542
2023-01-10T20:31:48.767Z,50.875587
2023-01-10T20:32:48.781Z,50.875484
2023-01-10T20:33:48.719Z,50.875298
2023-01-10T20:34:48.739Z,50.875381
2023-01-10T20:35:48.727Z,50.875229
2023-01-10T20:36:48.743Z,50.875175
2023-01-10T20:37:49.355Z,50.875366
2023-01-10T20:38:48.693Z,50.875378
2023-01-10T20:39:48.671Z,50.875435
2023-01-10T20:40:48.683Z,50.875427
2023-01-10T20:41:48.869Z,50.875328
2023-01-10T20:42:48.643Z,50.875366
2023-01-10T20:43:48.631Z,50.875340
2023-01-10T20:44:48.663Z,50.875488
2023-01-10T20:45:48.643Z,50.875217
2023-01-10T20:46:48.742Z,50.875271
2023-01-10T20:47:48.600Z,50.875374
2023-01-10T20:48:48.600Z,50.875397
2023-01-10T20:49:48.585Z,50.875427
2023-01-10T20:50:48.574Z,50.875381
2023-01-10T20:51:48.608Z,50.875481
2023-01-10T20:52:48.569Z,50.875278
2023-01-10T20:53:48.556Z,50.875454
2023-01-10T20:54:48.542Z,50.875145
2023-01-10T20:55:59.133Z,50.875225
2023-01-10T20:56:50.572Z,50.875042
2023-01-10T20:57:48.496Z,50.875320
2023-01-10T20:58:48.519Z,50.875759
2023-01-10T20:59:48.489Z,50.876038
2023-01-10T21:00:48.483Z,50.876038
2023-01-10T21:01:48.529Z,50.876038
2023-01-10T21:02:48.539Z,50.876038
2023-01-10T21:03:48.462Z,50.876038
2023-01-10T21:04:50.469Z,50.876038
2023-01-10T21:05:49.442Z,50.876038
2023-01-10T21:06:48.467Z,50.876038
2023-01-10T21:07:48.445Z,50.876038
2023-01-10T21:08:48.398Z,50.876038
2023-01-10T21:09:48.417Z,50.876038
2023-01-10T21:10:48.391Z,50.876038
2023-01-10T21:12:01.968Z,50.876038
2023-01-10T21:12:50.410Z,50.876038
2023-01-10T21:13:48.358Z,50.876038
2023-01-10T21:14:48.338Z,50.876038
2023-01-10T21:15:48.409Z,50.876038
2023-01-10T21:16:48.337Z,50.876038
2023-01-10T21:17:48.322Z,50.876038
2023-01-10T21:18:48.317Z,50.876038
2023-01-10T21:19:48.308Z,50.876038
2023-01-10T21:20:48.273Z,50.876038
2023-01-10T21:21:48.291Z,50.876038
2023-01-10T21:22:48.300Z,50.876038
2023-01-10T21:23:48.263Z,50.876038
2023-01-10T21:24:48.277Z,50.876038
2023-01-10T21:25:48.255Z,50.876038
2023-01-10T21:26:48.313Z,50.876038
2023-01-10T21:27:48.222Z,50.876038
2023-01-10T21:28:48.280Z,50.876038
2023-01-10T21:29:48.234Z,50.876038
2023-01-10T21:30:48.213Z,50.876038
2023-01-10T21:31:48.244Z,50.876038
2023-01-10T21:32:48.220Z,50.876038
2023-01-10T21:33:48.218Z,50.876038
2023-01-10T21:34:48.158Z,50.876038
2023-01-10T21:35:48.151Z,50.876038
2023-01-10T21:36:48.182Z,50.876038
2023-01-10T21:37:48.155Z,50.876038
2023-01-10T21:38:48.124Z,50.876038
2023-01-10T21:39:48.104Z,50.876038
2023-01-10T21:40:48.113Z,50.876038
2023-01-10T21:41:48.094Z,50.876038
2023-01-10T21:42:48.141Z,50.876038
2023-01-10T21:43:48.093Z,50.876038
2023-01-10T21:44:48.070Z,50.876038
2023-01-10T21:45:48.048Z,50.876038
2023-01-10T21:46:48.067Z,50.876038
2023-01-10T21:47:48.062Z,50.876038
2023-01-10T21:48:48.859Z,50.876038
2023-01-10T21:49:48.049Z,50.876038
2023-01-10T21:50:48.009Z,50.876038
2023-01-10T21:51:48.014Z,50.876038
2023-01-10T21:52:47.991Z,50.876038
2023-01-10T21:53:47.966Z,50.876038
2023-01-10T21:54:47.949Z,50.876038
2023-01-10T21:55:47.931Z,50.876038
2023-01-10T21:56:47.955Z,50.876038
2023-01-10T21:57:47.968Z,50.876038
2023-01-10T21:58:47.972Z,50.876038
2023-01-10T21:59:47.908Z,50.876038
2023-01-10T22:00:47.953Z,50.876038
2023-01-10T22:01:47.923Z,50.876038
2023-01-10T22:02:47.936Z,50.876038
2023-01-10T22:03:47.924Z,50.876038
2023-01-10T22:04:47.856Z,50.876038
2023-01-10T22:05:48.875Z,50.876038
2023-01-10T22:06:47.908Z,50.876038
2023-01-10T22:07:47.846Z,50.876038
2023-01-10T22:08:47.860Z,50.876038
2023-01-10T22:09:47.843Z,50.876038
2023-01-10T22:10:47.807Z,50.876038
2023-01-10T22:11:47.770Z,50.876038
2023-01-10T22:12:47.811Z,50.876038
2023-01-10T22:13:47.801Z,50.876038
2023-01-10T22:14:47.753Z,50.876038
2023-01-10T22:15:47.744Z,50.876038
2023-01-10T22:16:47.735Z,50.876038
2023-01-10T22:17:48.713Z,50.876038
2023-01-10T22:18:47.767Z,50.876038
2023-01-10T22:19:47.724Z,50.876038
2023-01-10T22:20:47.728Z,50.876038
2023-01-10T22:21:47.726Z,50.876038
2023-01-10T22:22:47.692Z,50.876038
2023-01-10T22:23:47.732Z,50.876038
2023-01-10T22:24:47.646Z,50.876038
2023-01-10T22:25:47.629Z,50.876038
2023-01-10T22:26:47.666Z,50.876038
2023-01-10T22:27:47.611Z,50.876038
2023-01-10T22:28:47.642Z,50.876038
2023-01-10T22:29:47.641Z,50.876038
2023-01-10T22:30:47.609Z,50.876038
2023-01-10T22:31:47.635Z,50.876038